sensor_id;sensor_type;location;lat;lon;timestamp;pressure;altitude;pressure_sealevel;temperature;humidity
82293;BME280;71892;14.836;105.234;2023-09-08T05:38:52;99130.94;;;32.01;nan
82293;BME280;71892;14.836;105.234;2023-09-08T05:41:18;99139.31;;;31.21;nan
82293;BME280;71892;14.836;105.234;2023-09-08T05:43:45;99133.31;;;30.46;nan
82293;BME280;71892;14.836;105.234;2023-09-08T05:46:11;99143.34;;;29.62;nan
82293;BME280;71892;14.836;105.234;2023-09-08T05:48:39;99148.47;;;29.03;nan
82293;BME280;71892;14.836;105.234;2023-09-08T05:51:05;99149.28;;;28.66;nan
82293;BME280;71892;14.836;105.234;2023-09-08T05:53:33;99150.22;;;28.25;nan
82293;BME280;71892;14.836;105.234;2023-09-08T05:56:01;99154.94;;;28.09;nan
82293;BME280;71892;14.836;105.234;2023-09-08T05:58:28;99146.19;;;27.90;nan
82293;BME280;71892;14.836;105.234;2023-09-08T06:00:54;99126.53;;;27.71;nan
82293;BME280;71892;14.836;105.234;2023-09-08T06:03:21;99130.53;;;27.65;nan
82293;BME280;71892;14.836;105.234;2023-09-08T06:05:47;99118.44;;;27.55;nan
82293;BME280;71892;14.836;105.234;2023-09-08T06:08:14;99116.78;;;27.38;nan
82293;BME280;71892;14.836;105.234;2023-09-08T06:10:40;99125.19;;;27.35;nan
82293;BME280;71892;14.836;105.234;2023-09-08T06:13:07;99124.31;;;27.35;nan
82293;BME280;71892;14.836;105.234;2023-09-08T06:15:33;99122.84;;;27.29;nan
82293;BME280;71892;14.836;105.234;2023-09-08T06:18:00;99115.03;;;27.37;nan
82293;BME280;71892;14.836;105.234;2023-09-08T06:20:26;99103.38;;;27.49;nan
82293;BME280;71892;14.836;105.234;2023-09-08T06:22:53;99072.00;;;27.55;nan
82293;BME280;71892;14.836;105.234;2023-09-08T06:25:19;99080.38;;;27.66;nan
82293;BME280;71892;14.836;105.234;2023-09-08T06:27:46;99077.69;;;27.93;nan
82293;BME280;71892;14.836;105.234;2023-09-08T06:30:13;99062.22;;;28.06;nan
82293;BME280;71892;14.836;105.234;2023-09-08T06:32:42;99068.84;;;28.16;nan
82293;BME280;71892;14.836;105.234;2023-09-08T06:35:09;99061.84;;;28.25;nan
82293;BME280;71892;14.836;105.234;2023-09-08T06:37:39;99057.38;;;28.24;nan
82293;BME280;71892;14.836;105.234;2023-09-08T06:40:06;99034.28;;;28.28;nan
82293;BME280;71892;14.836;105.234;2023-09-08T06:42:33;98988.81;;;28.39;nan
82293;BME280;71892;14.836;105.234;2023-09-08T06:44:59;99061.13;;;28.35;nan
82293;BME280;71892;14.836;105.234;2023-09-08T06:47:26;99075.69;;;28.36;nan
82293;BME280;71892;14.836;105.234;2023-09-08T06:49:53;99081.16;;;28.48;nan
82293;BME280;71892;14.836;105.234;2023-09-08T06:52:19;99070.13;;;28.63;nan
82293;BME280;71892;14.836;105.234;2023-09-08T06:54:46;99063.72;;;28.76;nan
82293;BME280;71892;14.836;105.234;2023-09-08T06:57:13;99076.88;;;28.84;nan
82293;BME280;71892;14.836;105.234;2023-09-08T06:59:40;99068.31;;;28.88;nan
82293;BME280;71892;14.836;105.234;2023-09-08T07:02:07;99062.63;;;28.91;nan
82293;BME280;71892;14.836;105.234;2023-09-08T07:04:34;99051.22;;;29.10;nan
82293;BME280;71892;14.836;105.234;2023-09-08T07:07:00;99006.75;;;29.19;nan
82293;BME280;71892;14.836;105.234;2023-09-08T07:09:34;99014.75;;;29.22;nan
82293;BME280;71892;14.836;105.234;2023-09-08T07:12:04;99009.78;;;29.40;nan
82293;BME280;71892;14.836;105.234;2023-09-08T07:14:31;98987.63;;;29.56;nan
82293;BME280;71892;14.836;105.234;2023-09-08T07:16:58;99006.69;;;29.57;nan
82293;BME280;71892;14.836;105.234;2023-09-08T07:19:26;98999.78;;;29.52;nan
82293;BME280;71892;14.836;105.234;2023-09-08T07:21:53;98996.41;;;29.48;nan
82293;BME280;71892;14.836;105.234;2023-09-08T07:24:19;98991.59;;;29.39;nan
82293;BME280;71892;14.836;105.234;2023-09-08T07:26:46;98993.59;;;29.37;nan
82293;BME280;71892;14.836;105.234;2023-09-08T07:29:12;98985.66;;;29.45;nan
82293;BME280;71892;14.836;105.234;2023-09-08T07:31:39;98968.88;;;29.50;nan
82293;BME280;71892;14.836;105.234;2023-09-08T07:34:06;98950.34;;;29.53;nan
82293;BME280;71892;14.836;105.234;2023-09-08T07:36:36;98964.34;;;29.61;nan
82293;BME280;71892;14.836;105.234;2023-09-08T07:39:06;98921.25;;;29.63;nan
82293;BME280;71892;14.836;105.234;2023-09-08T07:41:33;98946.41;;;29.57;nan
82293;BME280;71892;14.836;105.234;2023-09-08T07:44:00;98914.06;;;29.39;nan
82293;BME280;71892;14.836;105.234;2023-09-08T07:46:27;98918.25;;;29.31;nan
82293;BME280;71892;14.836;105.234;2023-09-08T07:48:53;98910.34;;;29.27;nan
82293;BME280;71892;14.836;105.234;2023-09-08T07:51:20;98907.28;;;29.31;nan
82293;BME280;71892;14.836;105.234;2023-09-08T07:53:46;98854.28;;;29.32;nan
82293;BME280;71892;14.836;105.234;2023-09-08T07:56:13;98920.19;;;29.42;nan
82293;BME280;71892;14.836;105.234;2023-09-08T07:58:40;98922.16;;;29.40;nan
82293;BME280;71892;14.836;105.234;2023-09-08T08:01:06;98935.66;;;29.30;nan
82293;BME280;71892;14.836;105.234;2023-09-08T08:03:33;98922.84;;;29.31;nan
82293;BME280;71892;14.836;105.234;2023-09-08T08:06:01;98887.41;;;29.41;nan
82293;BME280;71892;14.836;105.234;2023-09-08T08:08:28;98930.06;;;29.56;nan
82293;BME280;71892;14.836;105.234;2023-09-08T08:10:55;98906.00;;;29.72;nan
82293;BME280;71892;14.836;105.234;2023-09-08T08:13:22;98912.09;;;29.75;nan
82293;BME280;71892;14.836;105.234;2023-09-08T08:15:48;98923.19;;;29.74;nan
82293;BME280;71892;14.836;105.234;2023-09-08T08:18:15;98884.44;;;29.78;nan
82293;BME280;71892;14.836;105.234;2023-09-08T08:20:42;98910.97;;;29.91;nan
82293;BME280;71892;14.836;105.234;2023-09-08T08:23:08;98904.75;;;29.76;nan
82293;BME280;71892;14.836;105.234;2023-09-08T08:25:35;98914.94;;;29.98;nan
82293;BME280;71892;14.836;105.234;2023-09-08T08:30:28;98915.00;;;30.09;nan
82293;BME280;71892;14.836;105.234;2023-09-08T08:32:55;98921.81;;;30.03;nan
82293;BME280;71892;14.836;105.234;2023-09-08T08:35:21;98916.38;;;30.14;nan
82293;BME280;71892;14.836;105.234;2023-09-08T08:37:48;98903.75;;;30.12;nan
82293;BME280;71892;14.836;105.234;2023-09-08T08:40:15;98905.66;;;30.22;nan
82293;BME280;71892;14.836;105.234;2023-09-08T08:42:41;98905.22;;;30.40;nan
82293;BME280;71892;14.836;105.234;2023-09-08T08:45:09;98865.81;;;30.52;nan
82293;BME280;71892;14.836;105.234;2023-09-08T08:47:35;98894.16;;;30.63;nan
82293;BME280;71892;14.836;105.234;2023-09-08T08:50:02;98885.53;;;30.68;nan
82293;BME280;71892;14.836;105.234;2023-09-08T08:52:30;98873.19;;;30.74;nan
82293;BME280;71892;14.836;105.234;2023-09-08T08:54:57;98867.06;;;30.70;nan
82293;BME280;71892;14.836;105.234;2023-09-08T08:57:24;98867.94;;;30.71;nan
82293;BME280;71892;14.836;105.234;2023-09-08T08:59:53;98884.66;;;30.68;nan
82293;BME280;71892;14.836;105.234;2023-09-08T09:02:21;98880.28;;;30.65;nan
82293;BME280;71892;14.836;105.234;2023-09-08T09:04:49;98881.53;;;30.61;nan
82293;BME280;71892;14.836;105.234;2023-09-08T09:07:18;98834.50;;;30.43;nan
82293;BME280;71892;14.836;105.234;2023-09-08T09:09:45;98865.03;;;30.39;nan
82293;BME280;71892;14.836;105.234;2023-09-08T09:12:11;98870.91;;;30.34;nan
82293;BME280;71892;14.836;105.234;2023-09-08T09:14:45;98876.25;;;30.25;nan
82293;BME280;71892;14.836;105.234;2023-09-08T09:17:14;98886.44;;;30.11;nan
82293;BME280;71892;14.836;105.234;2023-09-08T09:19:41;98897.50;;;29.99;nan
82293;BME280;71892;14.836;105.234;2023-09-08T09:22:07;98854.88;;;29.95;nan
82293;BME280;71892;14.836;105.234;2023-09-08T09:24:36;98899.03;;;29.79;nan
82293;BME280;71892;14.836;105.234;2023-09-08T09:27:12;98900.53;;;29.83;nan
82293;BME280;71892;14.836;105.234;2023-09-08T09:29:49;98892.81;;;29.77;nan
82293;BME280;71892;14.836;105.234;2023-09-08T09:32:17;98889.31;;;29.75;nan
82293;BME280;71892;14.836;105.234;2023-09-08T09:34:51;98887.34;;;29.77;nan
82293;BME280;71892;14.836;105.234;2023-09-08T09:37:22;98887.69;;;29.72;nan
82293;BME280;71892;14.836;105.234;2023-09-08T09:39:54;98900.09;;;29.65;nan
82293;BME280;71892;14.836;105.234;2023-09-08T09:42:21;98888.28;;;29.65;nan
82293;BME280;71892;14.836;105.234;2023-09-08T09:44:48;98890.84;;;29.55;nan
82293;BME280;71892;14.836;105.234;2023-09-08T09:47:17;98877.44;;;29.40;nan
82293;BME280;71892;14.836;105.234;2023-09-08T09:49:45;98882.41;;;29.34;nan
82293;BME280;71892;14.836;105.234;2023-09-08T09:52:12;98884.06;;;29.24;nan
82293;BME280;71892;14.836;105.234;2023-09-08T09:54:43;98889.78;;;29.21;nan
82293;BME280;71892;14.836;105.234;2023-09-08T09:57:18;98898.03;;;29.09;nan
82293;BME280;71892;14.836;105.234;2023-09-08T09:59:46;98896.41;;;29.06;nan
82293;BME280;71892;14.836;105.234;2023-09-08T10:02:17;98882.41;;;28.98;nan
82293;BME280;71892;14.836;105.234;2023-09-08T10:04:50;98896.91;;;28.87;nan
82293;BME280;71892;14.836;105.234;2023-09-08T10:07:17;98901.59;;;28.85;nan
82293;BME280;71892;14.836;105.234;2023-09-08T10:09:44;98899.53;;;28.76;nan
82293;BME280;71892;14.836;105.234;2023-09-08T10:12:14;98874.56;;;28.81;nan
82293;BME280;71892;14.836;105.234;2023-09-08T10:14:43;98912.22;;;28.90;nan
82293;BME280;71892;14.836;105.234;2023-09-08T10:17:19;98910.22;;;29.05;nan
82293;BME280;71892;14.836;105.234;2023-09-08T10:19:52;98917.91;;;29.00;nan
82293;BME280;71892;14.836;105.234;2023-09-08T10:22:20;98924.03;;;28.90;nan
82293;BME280;71892;14.836;105.234;2023-09-08T10:24:54;98901.72;;;28.71;nan
82293;BME280;71892;14.836;105.234;2023-09-08T10:27:22;98936.97;;;28.63;nan
82293;BME280;71892;14.836;105.234;2023-09-08T10:29:50;98929.53;;;28.65;nan
82293;BME280;71892;14.836;105.234;2023-09-08T10:32:17;98933.22;;;28.51;nan
82293;BME280;71892;14.836;105.234;2023-09-08T10:34:48;98918.84;;;28.37;nan
82293;BME280;71892;14.836;105.234;2023-09-08T10:37:23;98945.06;;;28.27;nan
82293;BME280;71892;14.836;105.234;2023-09-08T10:39:58;98948.56;;;28.16;nan
82293;BME280;71892;14.836;105.234;2023-09-08T10:42:43;98944.34;;;28.10;nan
82293;BME280;71892;14.836;105.234;2023-09-08T10:45:19;98937.44;;;27.92;nan
82293;BME280;71892;14.836;105.234;2023-09-08T10:50:19;98949.38;;;27.64;nan
82293;BME280;71892;14.836;105.234;2023-09-08T10:53:15;98940.84;;;27.56;nan
82293;BME280;71892;14.836;105.234;2023-09-08T10:55:42;98967.56;;;27.51;nan
82293;BME280;71892;14.836;105.234;2023-09-08T10:58:34;98972.56;;;27.45;nan
82293;BME280;71892;14.836;105.234;2023-09-08T11:01:05;98982.69;;;27.43;nan
82293;BME280;71892;14.836;105.234;2023-09-08T11:06:09;98979.00;;;27.44;nan
82293;BME280;71892;14.836;105.234;2023-09-08T11:08:44;98987.28;;;27.42;nan
82293;BME280;71892;14.836;105.234;2023-09-08T11:11:12;98988.78;;;27.34;nan
82293;BME280;71892;14.836;105.234;2023-09-08T11:13:39;99008.66;;;27.21;nan
82293;BME280;71892;14.836;105.234;2023-09-08T11:16:06;99002.63;;;27.16;nan
82293;BME280;71892;14.836;105.234;2023-09-08T11:18:34;99011.13;;;27.12;nan
82293;BME280;71892;14.836;105.234;2023-09-08T11:21:03;99021.28;;;27.10;nan
82293;BME280;71892;14.836;105.234;2023-09-08T11:23:33;98985.22;;;27.05;nan
82293;BME280;71892;14.836;105.234;2023-09-08T11:26:00;99024.78;;;26.98;nan
82293;BME280;71892;14.836;105.234;2023-09-08T11:28:27;99024.78;;;26.98;nan
82293;BME280;71892;14.836;105.234;2023-09-08T11:30:55;99020.72;;;26.91;nan
82293;BME280;71892;14.836;105.234;2023-09-08T11:33:22;99021.28;;;26.81;nan
82293;BME280;71892;14.836;105.234;2023-09-08T11:35:53;99049.81;;;26.76;nan
82293;BME280;71892;14.836;105.234;2023-09-08T11:38:29;99031.97;;;26.70;nan
82293;BME280;71892;14.836;105.234;2023-09-08T11:40:58;99047.53;;;26.68;nan
82293;BME280;71892;14.836;105.234;2023-09-08T11:43:28;99050.09;;;26.71;nan
82293;BME280;71892;14.836;105.234;2023-09-08T11:45:55;99041.72;;;26.74;nan
82293;BME280;71892;14.836;105.234;2023-09-08T11:48:24;99054.47;;;26.74;nan
82293;BME280;71892;14.836;105.234;2023-09-08T11:50:53;99068.97;;;26.74;nan
82293;BME280;71892;14.836;105.234;2023-09-08T11:53:21;99078.84;;;26.77;nan
82293;BME280;71892;14.836;105.234;2023-09-08T11:55:49;99091.88;;;26.72;nan
82293;BME280;71892;14.836;105.234;2023-09-08T11:58:16;99054.97;;;26.66;nan
82293;BME280;71892;14.836;105.234;2023-09-08T12:00:45;99102.88;;;26.70;nan
82293;BME280;71892;14.836;105.234;2023-09-08T12:03:15;99092.94;;;26.69;nan
82293;BME280;71892;14.836;105.234;2023-09-08T12:05:44;99113.78;;;26.70;nan
82293;BME280;71892;14.836;105.234;2023-09-08T12:08:16;99098.75;;;26.63;nan
82293;BME280;71892;14.836;105.234;2023-09-08T12:10:43;99054.81;;;26.54;nan
82293;BME280;71892;14.836;105.234;2023-09-08T12:13:10;99108.66;;;26.50;nan
82293;BME280;71892;14.836;105.234;2023-09-08T12:15:38;99058.41;;;26.40;nan
82293;BME280;71892;14.836;105.234;2023-09-08T12:18:12;99113.88;;;26.39;nan
82293;BME280;71892;14.836;105.234;2023-09-08T12:20:39;99119.06;;;26.44;nan
82293;BME280;71892;14.836;105.234;2023-09-08T12:23:19;99112.03;;;26.39;nan
82293;BME280;71892;14.836;105.234;2023-09-08T12:25:50;99103.25;;;26.34;nan
82293;BME280;71892;14.836;105.234;2023-09-08T12:28:21;99107.06;;;26.32;nan
82293;BME280;71892;14.836;105.234;2023-09-08T12:30:51;99117.88;;;26.33;nan
82293;BME280;71892;14.836;105.234;2023-09-08T12:33:19;99118.72;;;26.34;nan
82293;BME280;71892;14.836;105.234;2023-09-08T12:35:47;99118.72;;;26.34;nan
82293;BME280;71892;14.836;105.234;2023-09-08T12:38:18;99131.41;;;26.35;nan
82293;BME280;71892;14.836;105.234;2023-09-08T12:40:45;99068.63;;;26.36;nan
82293;BME280;71892;14.836;105.234;2023-09-08T12:43:11;99147.59;;;26.38;nan
82293;BME280;71892;14.836;105.234;2023-09-08T12:45:38;99140.88;;;26.44;nan
82293;BME280;71892;14.836;105.234;2023-09-08T12:48:05;99113.59;;;26.44;nan
82293;BME280;71892;14.836;105.234;2023-09-08T12:50:33;99149.31;;;26.39;nan
82293;BME280;71892;14.836;105.234;2023-09-08T12:52:59;99141.41;;;26.34;nan
82293;BME280;71892;14.836;105.234;2023-09-08T12:55:26;99138.28;;;26.26;nan
82293;BME280;71892;14.836;105.234;2023-09-08T12:57:52;99139.47;;;26.21;nan
82293;BME280;71892;14.836;105.234;2023-09-08T13:00:23;99148.63;;;26.20;nan
82293;BME280;71892;14.836;105.234;2023-09-08T13:02:50;99134.94;;;26.21;nan
82293;BME280;71892;14.836;105.234;2023-09-08T13:05:16;99129.66;;;26.18;nan
82293;BME280;71892;14.836;105.234;2023-09-08T13:07:43;99126.31;;;26.13;nan
82293;BME280;71892;14.836;105.234;2023-09-08T13:10:09;99138.53;;;26.06;nan
82293;BME280;71892;14.836;105.234;2023-09-08T13:12:36;99134.59;;;26.12;nan
82293;BME280;71892;14.836;105.234;2023-09-08T13:15:03;99135.47;;;26.12;nan
82293;BME280;71892;14.836;105.234;2023-09-08T13:17:29;99139.22;;;26.10;nan
82293;BME280;71892;14.836;105.234;2023-09-08T13:19:56;99119.38;;;26.08;nan
82293;BME280;71892;14.836;105.234;2023-09-08T13:22:22;99140.38;;;26.06;nan
82293;BME280;71892;14.836;105.234;2023-09-08T13:24:49;99139.88;;;25.99;nan
82293;BME280;71892;14.836;105.234;2023-09-08T13:27:15;99141.28;;;25.90;nan
82293;BME280;71892;14.836;105.234;2023-09-08T13:29:43;99145.88;;;25.90;nan
82293;BME280;71892;14.836;105.234;2023-09-08T13:32:10;99150.31;;;25.91;nan
82293;BME280;71892;14.836;105.234;2023-09-08T13:34:36;99180.22;;;25.92;nan
82293;BME280;71892;14.836;105.234;2023-09-08T13:37:04;99165.72;;;25.92;nan
82293;BME280;71892;14.836;105.234;2023-09-08T13:39:31;99130.91;;;25.81;nan
82293;BME280;71892;14.836;105.234;2023-09-08T13:41:59;99174.94;;;25.74;nan
82293;BME280;71892;14.836;105.234;2023-09-08T13:44:26;99184.31;;;25.68;nan
82293;BME280;71892;14.836;105.234;2023-09-08T13:46:53;99174.13;;;25.72;nan
82293;BME280;71892;14.836;105.234;2023-09-08T13:49:20;99173.25;;;25.71;nan
82293;BME280;71892;14.836;105.234;2023-09-08T13:51:48;99179.75;;;25.69;nan
82293;BME280;71892;14.836;105.234;2023-09-08T13:54:19;99174.31;;;25.69;nan
82293;BME280;71892;14.836;105.234;2023-09-08T13:57:00;99128.97;;;25.68;nan
82293;BME280;71892;14.836;105.234;2023-09-08T13:59:27;99164.03;;;25.74;nan
82293;BME280;71892;14.836;105.234;2023-09-08T14:01:55;99134.00;;;25.75;nan
82293;BME280;71892;14.836;105.234;2023-09-08T14:04:22;99159.28;;;25.77;nan
82293;BME280;71892;14.836;105.234;2023-09-08T14:09:14;99175.97;;;25.71;nan
82293;BME280;71892;14.836;105.234;2023-09-08T14:11:41;99171.03;;;25.62;nan
82293;BME280;71892;14.836;105.234;2023-09-08T14:14:07;99152.53;;;25.51;nan
82293;BME280;71892;14.836;105.234;2023-09-08T14:16:34;99140.00;;;25.49;nan
82293;BME280;71892;14.836;105.234;2023-09-08T14:19:01;99175.31;;;25.50;nan
82293;BME280;71892;14.836;105.234;2023-09-08T14:21:27;99153.34;;;25.53;nan
82293;BME280;71892;14.836;105.234;2023-09-08T14:23:54;99173.25;;;25.56;nan
82293;BME280;71892;14.836;105.234;2023-09-08T14:26:20;99179.75;;;25.69;nan
82293;BME280;71892;14.836;105.234;2023-09-08T14:28:47;99151.13;;;25.77;nan
82293;BME280;71892;14.836;105.234;2023-09-08T14:31:13;99184.50;;;25.81;nan
82293;BME280;71892;14.836;105.234;2023-09-08T14:33:40;99181.97;;;25.78;nan
82293;BME280;71892;14.836;105.234;2023-09-08T14:36:06;99169.41;;;25.75;nan
82293;BME280;71892;14.836;105.234;2023-09-08T14:38:33;99199.19;;;25.78;nan
82293;BME280;71892;14.836;105.234;2023-09-08T14:41:01;99201.91;;;25.78;nan
82293;BME280;71892;14.836;105.234;2023-09-08T14:43:29;99176.44;;;25.79;nan
82293;BME280;71892;14.836;105.234;2023-09-08T14:45:56;99212.28;;;25.87;nan
82293;BME280;71892;14.836;105.234;2023-09-08T14:48:26;99221.41;;;25.86;nan
82293;BME280;71892;14.836;105.234;2023-09-08T14:50:54;99200.56;;;25.85;nan
82293;BME280;71892;14.836;105.234;2023-09-08T14:53:21;99186.97;;;25.85;nan
82293;BME280;71892;14.836;105.234;2023-09-08T14:55:47;99220.53;;;25.86;nan
82293;BME280;71892;14.836;105.234;2023-09-08T14:58:15;99225.81;;;25.89;nan
82293;BME280;71892;14.836;105.234;2023-09-08T15:00:41;99212.91;;;25.92;nan
82293;BME280;71892;14.836;105.234;2023-09-08T15:03:08;99231.09;;;25.92;nan
82293;BME280;71892;14.836;105.234;2023-09-08T15:05:35;99231.16;;;25.90;nan
82293;BME280;71892;14.836;105.234;2023-09-08T15:08:02;99215.63;;;25.92;nan
82293;BME280;71892;14.836;105.234;2023-09-08T15:10:29;99227.59;;;25.90;nan
82293;BME280;71892;14.836;105.234;2023-09-08T15:12:57;99200.50;;;25.87;nan
82293;BME280;71892;14.836;105.234;2023-09-08T15:15:23;99244.09;;;25.87;nan
82293;BME280;71892;14.836;105.234;2023-09-08T15:17:53;99253.84;;;25.91;nan
82293;BME280;71892;14.836;105.234;2023-09-08T15:20:21;99211.75;;;25.96;nan
82293;BME280;71892;14.836;105.234;2023-09-08T15:22:48;99258.88;;;25.99;nan
82293;BME280;71892;14.836;105.234;2023-09-08T15:25:15;99259.66;;;26.01;nan
82293;BME280;71892;14.836;105.234;2023-09-08T15:27:42;99256.59;;;26.07;nan
82293;BME280;71892;14.836;105.234;2023-09-08T15:30:10;99257.53;;;26.06;nan
82293;BME280;71892;14.836;105.234;2023-09-08T15:32:37;99222.31;;;26.03;nan
82293;BME280;71892;14.836;105.234;2023-09-08T15:35:06;99253.78;;;26.08;nan
82293;BME280;71892;14.836;105.234;2023-09-08T15:37:32;99241.72;;;26.12;nan
82293;BME280;71892;14.836;105.234;2023-09-08T15:40:00;99238.81;;;26.15;nan
82293;BME280;71892;14.836;105.234;2023-09-08T15:42:26;99186.78;;;26.20;nan
82293;BME280;71892;14.836;105.234;2023-09-08T15:44:53;99203.31;;;26.17;nan
82293;BME280;71892;14.836;105.234;2023-09-08T15:47:19;99226.88;;;26.18;nan
82293;BME280;71892;14.836;105.234;2023-09-08T15:49:46;99226.06;;;26.16;nan
82293;BME280;71892;14.836;105.234;2023-09-08T15:52:13;99193.38;;;26.16;nan
82293;BME280;71892;14.836;105.234;2023-09-08T15:54:39;99214.03;;;26.20;nan
82293;BME280;71892;14.836;105.234;2023-09-08T15:57:06;99215.78;;;26.21;nan
82293;BME280;71892;14.836;105.234;2023-09-08T15:59:33;99221.19;;;26.22;nan
82293;BME280;71892;14.836;105.234;2023-09-08T16:02:03;99219.34;;;26.23;nan
82293;BME280;71892;14.836;105.234;2023-09-08T16:04:29;99219.34;;;26.23;nan
82293;BME280;71892;14.836;105.234;2023-09-08T16:06:56;99224.81;;;26.23;nan
82293;BME280;71892;14.836;105.234;2023-09-08T16:09:22;99207.81;;;26.18;nan
82293;BME280;71892;14.836;105.234;2023-09-08T16:11:49;99207.88;;;26.16;nan
82293;BME280;71892;14.836;105.234;2023-09-08T16:14:15;99197.78;;;26.18;nan
82293;BME280;71892;14.836;105.234;2023-09-08T16:16:42;99200.34;;;26.21;nan
82293;BME280;71892;14.836;105.234;2023-09-08T16:19:09;99171.25;;;26.22;nan
82293;BME280;71892;14.836;105.234;2023-09-08T16:21:36;99188.50;;;26.22;nan
82293;BME280;71892;14.836;105.234;2023-09-08T16:24:03;99188.38;;;26.24;nan
82293;BME280;71892;14.836;105.234;2023-09-08T16:26:29;99169.31;;;26.24;nan
82293;BME280;71892;14.836;105.234;2023-09-08T16:28:56;99198.25;;;26.26;nan
82293;BME280;71892;14.836;105.234;2023-09-08T16:31:22;99194.56;;;26.27;nan
82293;BME280;71892;14.836;105.234;2023-09-08T16:33:49;99194.28;;;26.32;nan
82293;BME280;71892;14.836;105.234;2023-09-08T16:36:18;99198.84;;;26.31;nan
82293;BME280;71892;14.836;105.234;2023-09-08T16:38:45;99166.41;;;26.27;nan
82293;BME280;71892;14.836;105.234;2023-09-08T16:41:11;99189.25;;;26.24;nan
82293;BME280;71892;14.836;105.234;2023-09-08T16:43:38;99186.72;;;26.21;nan
82293;BME280;71892;14.836;105.234;2023-09-08T16:46:04;99192.97;;;26.23;nan
82293;BME280;71892;14.836;105.234;2023-09-08T16:48:31;99166.56;;;26.24;nan
82293;BME280;71892;14.836;105.234;2023-09-08T16:50:57;99187.53;;;26.23;nan
82293;BME280;71892;14.836;105.234;2023-09-08T16:53:24;99188.53;;;26.21;nan
82293;BME280;71892;14.836;105.234;2023-09-08T16:55:50;99175.75;;;26.23;nan
82293;BME280;71892;14.836;105.234;2023-09-08T16:58:16;99194.56;;;26.27;nan
82293;BME280;71892;14.836;105.234;2023-09-08T17:00:43;99202.72;;;26.27;nan
82293;BME280;71892;14.836;105.234;2023-09-08T17:03:10;99207.22;;;26.28;nan
82293;BME280;71892;14.836;105.234;2023-09-08T17:05:36;99225.50;;;26.26;nan
82293;BME280;71892;14.836;105.234;2023-09-08T17:08:03;99237.28;;;26.27;nan
82293;BME280;71892;14.836;105.234;2023-09-08T17:10:29;99215.25;;;26.14;nan
82293;BME280;71892;14.836;105.234;2023-09-08T17:12:56;99204.81;;;26.07;nan
82293;BME280;71892;14.836;105.234;2023-09-08T17:17:49;99224.50;;;25.96;nan
82293;BME280;71892;14.836;105.234;2023-09-08T17:20:16;99226.19;;;25.99;nan
82293;BME280;71892;14.836;105.234;2023-09-08T17:22:42;99218.97;;;25.98;nan
82293;BME280;71892;14.836;105.234;2023-09-08T17:25:09;99217.03;;;26.00;nan
82293;BME280;71892;14.836;105.234;2023-09-08T17:27:36;99198.94;;;25.99;nan
82293;BME280;71892;14.836;105.234;2023-09-08T17:30:03;99204.13;;;26.03;nan
82293;BME280;71892;14.836;105.234;2023-09-08T17:32:30;99201.53;;;26.00;nan
82293;BME280;71892;14.836;105.234;2023-09-08T17:34:56;99177.84;;;26.02;nan
82293;BME280;71892;14.836;105.234;2023-09-08T17:37:23;99173.25;;;26.03;nan
82293;BME280;71892;14.836;105.234;2023-09-08T17:39:49;99172.38;;;26.02;nan
82293;BME280;71892;14.836;105.234;2023-09-08T17:42:16;99161.22;;;25.91;nan
82293;BME280;71892;14.836;105.234;2023-09-08T17:44:42;99164.47;;;25.82;nan
82293;BME280;71892;14.836;105.234;2023-09-08T17:47:09;99157.63;;;25.75;nan
82293;BME280;71892;14.836;105.234;2023-09-08T17:52:02;99141.81;;;25.66;nan
82293;BME280;71892;14.836;105.234;2023-09-08T17:54:28;99145.66;;;25.62;nan
82293;BME280;71892;14.836;105.234;2023-09-08T17:56:57;99144.06;;;25.58;nan
82293;BME280;71892;14.836;105.234;2023-09-08T17:59:24;99141.78;;;25.50;nan
82293;BME280;71892;14.836;105.234;2023-09-08T18:01:52;99094.00;;;25.44;nan
82293;BME280;71892;14.836;105.234;2023-09-08T18:04:18;99125.84;;;25.42;nan
82293;BME280;71892;14.836;105.234;2023-09-08T18:06:45;99125.84;;;25.42;nan
82293;BME280;71892;14.836;105.234;2023-09-08T18:09:12;99114.44;;;25.36;nan
82293;BME280;71892;14.836;105.234;2023-09-08T18:11:38;99109.84;;;25.21;nan
82293;BME280;71892;14.836;105.234;2023-09-08T18:14:05;99100.69;;;25.06;nan
82293;BME280;71892;14.836;105.234;2023-09-08T18:16:32;99112.84;;;24.99;nan
82293;BME280;71892;14.836;105.234;2023-09-08T18:18:58;99109.97;;;24.85;nan
82293;BME280;71892;14.836;105.234;2023-09-08T18:21:25;99103.13;;;24.78;nan
82293;BME280;71892;14.836;105.234;2023-09-08T18:23:51;99092.75;;;24.68;nan
82293;BME280;71892;14.836;105.234;2023-09-08T18:26:18;99105.53;;;24.66;nan
82293;BME280;71892;14.836;105.234;2023-09-08T18:28:45;99079.94;;;24.71;nan
82293;BME280;71892;14.836;105.234;2023-09-08T18:31:11;99081.94;;;24.67;nan
82293;BME280;71892;14.836;105.234;2023-09-08T18:33:38;99074.56;;;24.69;nan
82293;BME280;71892;14.836;105.234;2023-09-08T18:36:05;99077.84;;;24.76;nan
82293;BME280;71892;14.836;105.234;2023-09-08T18:38:32;99070.13;;;24.68;nan
82293;BME280;71892;14.836;105.234;2023-09-08T18:41:00;99053.69;;;24.69;nan
82293;BME280;71892;14.836;105.234;2023-09-08T18:45:53;99053.16;;;24.63;nan
82293;BME280;71892;14.836;105.234;2023-09-08T18:48:20;99063.69;;;24.69;nan
82293;BME280;71892;14.836;105.234;2023-09-08T18:50:47;99052.41;;;24.77;nan
82293;BME280;71892;14.836;105.234;2023-09-08T18:53:15;99048.81;;;24.76;nan
82293;BME280;71892;14.836;105.234;2023-09-08T18:55:42;99057.69;;;24.80;nan
82293;BME280;71892;14.836;105.234;2023-09-08T18:58:08;99045.59;;;24.85;nan